sensor_id;sensor_type;location;lat;lon;timestamp;pressure;altitude;pressure_sealevel;temperature;humidity
53960;BME280;39866;48.638;-2.020;2023-03-26T00:00:08;99979.63;;;12.43;78.05
53960;BME280;39866;48.638;-2.020;2023-03-26T00:02:34;99971.34;;;12.30;77.47
53960;BME280;39866;48.638;-2.020;2023-03-26T00:04:59;99975.00;;;12.27;77.37
53960;BME280;39866;48.638;-2.020;2023-03-26T00:07:25;99973.19;;;12.28;78.37
53960;BME280;39866;48.638;-2.020;2023-03-26T00:09:52;99992.41;;;12.72;75.50
53960;BME280;39866;48.638;-2.020;2023-03-26T00:12:17;100007.44;;;12.56;75.44
53960;BME280;39866;48.638;-2.020;2023-03-26T00:14:42;100010.44;;;12.50;76.18
53960;BME280;39866;48.638;-2.020;2023-03-26T00:17:09;100027.66;;;12.43;76.50
53960;BME280;39866;48.638;-2.020;2023-03-26T00:19:34;100023.41;;;12.38;76.38
53960;BME280;39866;48.638;-2.020;2023-03-26T00:22:01;100039.25;;;12.79;75.71
53960;BME280;39866;48.638;-2.020;2023-03-26T00:24:27;100052.19;;;12.70;75.04
53960;BME280;39866;48.638;-2.020;2023-03-26T00:26:54;100058.81;;;12.80;75.27
53960;BME280;39866;48.638;-2.020;2023-03-26T00:29:20;100057.00;;;12.80;74.65
53960;BME280;39866;48.638;-2.020;2023-03-26T00:31:47;100077.41;;;12.81;74.13
53960;BME280;39866;48.638;-2.020;2023-03-26T00:34:13;100086.03;;;13.05;73.23
53960;BME280;39866;48.638;-2.020;2023-03-26T00:36:40;100083.59;;;13.01;73.34
53960;BME280;39866;48.638;-2.020;2023-03-26T00:39:06;100097.66;;;12.87;73.63
53960;BME280;39866;48.638;-2.020;2023-03-26T00:41:32;100101.53;;;12.61;73.45
53960;BME280;39866;48.638;-2.020;2023-03-26T00:44:01;100117.56;;;12.61;73.23
53960;BME280;39866;48.638;-2.020;2023-03-26T00:46:28;100134.91;;;12.71;73.48
53960;BME280;39866;48.638;-2.020;2023-03-26T00:48:54;100144.47;;;12.56;73.27
53960;BME280;39866;48.638;-2.020;2023-03-26T00:51:24;100171.81;;;12.43;73.56
53960;BME280;39866;48.638;-2.020;2023-03-26T00:53:50;100144.00;;;12.67;72.86
53960;BME280;39866;48.638;-2.020;2023-03-26T00:56:16;100152.59;;;12.74;72.71
53960;BME280;39866;48.638;-2.020;2023-03-26T00:58:41;100152.59;;;12.74;72.42
53960;BME280;39866;48.638;-2.020;2023-03-26T01:01:11;100151.88;;;12.70;71.87
53960;BME280;39866;48.638;-2.020;2023-03-26T01:03:41;100131.72;;;12.63;71.67
53960;BME280;39866;48.638;-2.020;2023-03-26T01:06:12;100144.25;;;12.61;71.87
53960;BME280;39866;48.638;-2.020;2023-03-26T01:08:42;100144.78;;;12.69;71.65
53960;BME280;39866;48.638;-2.020;2023-03-26T01:11:16;100147.31;;;12.72;71.76
53960;BME280;39866;48.638;-2.020;2023-03-26T01:13:47;100147.88;;;12.60;71.34
53960;BME280;39866;48.638;-2.020;2023-03-26T01:16:44;100156.63;;;12.82;70.82
53960;BME280;39866;48.638;-2.020;2023-03-26T01:21:42;100157.97;;;13.10;69.42
53960;BME280;39866;48.638;-2.020;2023-03-26T01:24:08;100182.75;;;13.13;69.27
53960;BME280;39866;48.638;-2.020;2023-03-26T01:32:03;100161.84;;;13.22;69.36
53960;BME280;39866;48.638;-2.020;2023-03-26T01:34:50;100181.75;;;13.35;68.23
53960;BME280;39866;48.638;-2.020;2023-03-26T01:37:23;100164.28;;;13.28;67.91
53960;BME280;39866;48.638;-2.020;2023-03-26T01:40:27;100168.59;;;13.11;68.84
53960;BME280;39866;48.638;-2.020;2023-03-26T01:42:59;100173.81;;;12.96;68.56
53960;BME280;39866;48.638;-2.020;2023-03-26T01:45:31;100173.59;;;13.19;68.08
53960;BME280;39866;48.638;-2.020;2023-03-26T01:47:59;100182.13;;;13.27;67.67
53960;BME280;39866;48.638;-2.020;2023-03-26T01:50:24;100168.06;;;13.22;67.08
53960;BME280;39866;48.638;-2.020;2023-03-26T01:52:50;100160.50;;;13.13;66.99
53960;BME280;39866;48.638;-2.020;2023-03-26T01:55:15;100172.16;;;13.31;66.93
53960;BME280;39866;48.638;-2.020;2023-03-26T01:57:57;100170.75;;;13.22;66.94
53960;BME280;39866;48.638;-2.020;2023-03-26T02:00:32;100166.81;;;13.12;67.16
53960;BME280;39866;48.638;-2.020;2023-03-26T02:03:31;100161.00;;;13.21;66.11
53960;BME280;39866;48.638;-2.020;2023-03-26T02:06:09;100171.78;;;13.20;66.90
53960;BME280;39866;48.638;-2.020;2023-03-26T02:08:44;100160.28;;;13.18;66.07
53960;BME280;39866;48.638;-2.020;2023-03-26T02:11:12;100177.50;;;13.12;66.82
53960;BME280;39866;48.638;-2.020;2023-03-26T02:13:43;100163.66;;;13.21;66.04
53960;BME280;39866;48.638;-2.020;2023-03-26T02:16:11;100171.22;;;13.32;66.27
53960;BME280;39866;48.638;-2.020;2023-03-26T02:18:41;100166.72;;;13.32;66.47
53960;BME280;39866;48.638;-2.020;2023-03-26T02:21:11;100169.56;;;13.47;66.23
53960;BME280;39866;48.638;-2.020;2023-03-26T02:23:42;100162.25;;;13.33;66.46
53960;BME280;39866;48.638;-2.020;2023-03-26T02:26:12;100163.34;;;13.46;65.94
53960;BME280;39866;48.638;-2.020;2023-03-26T02:28:38;100175.75;;;13.11;66.88
53960;BME280;39866;48.638;-2.020;2023-03-26T02:31:04;100166.47;;;13.18;66.61
53960;BME280;39866;48.638;-2.020;2023-03-26T02:33:30;100166.88;;;13.10;66.39
53960;BME280;39866;48.638;-2.020;2023-03-26T02:35:57;100160.47;;;12.96;66.56
53960;BME280;39866;48.638;-2.020;2023-03-26T02:38:31;100157.56;;;13.19;66.46
53960;BME280;39866;48.638;-2.020;2023-03-26T02:41:00;100152.00;;;13.24;66.07
53960;BME280;39866;48.638;-2.020;2023-03-26T02:43:26;100150.44;;;13.18;66.35
53960;BME280;39866;48.638;-2.020;2023-03-26T02:45:51;100154.22;;;13.33;66.13
53960;BME280;39866;48.638;-2.020;2023-03-26T02:48:17;100147.78;;;13.37;66.24
53960;BME280;39866;48.638;-2.020;2023-03-26T02:50:43;100144.88;;;13.42;65.88
53960;BME280;39866;48.638;-2.020;2023-03-26T02:53:08;100144.88;;;13.42;66.00
53960;BME280;39866;48.638;-2.020;2023-03-26T02:55:36;100141.31;;;13.24;65.84
53960;BME280;39866;48.638;-2.020;2023-03-26T02:58:01;100141.94;;;13.29;65.99
53960;BME280;39866;48.638;-2.020;2023-03-26T03:00:27;100149.50;;;13.38;66.20
53960;BME280;39866;48.638;-2.020;2023-03-26T03:02:53;100146.06;;;13.36;65.90
53960;BME280;39866;48.638;-2.020;2023-03-26T03:05:22;100144.72;;;13.45;65.96
53960;BME280;39866;48.638;-2.020;2023-03-26T03:07:51;100149.44;;;13.21;66.05
53960;BME280;39866;48.638;-2.020;2023-03-26T03:10:22;100150.00;;;13.46;65.17
53960;BME280;39866;48.638;-2.020;2023-03-26T03:12:47;100136.13;;;13.38;65.46
53960;BME280;39866;48.638;-2.020;2023-03-26T03:15:12;100142.34;;;13.38;65.80
53960;BME280;39866;48.638;-2.020;2023-03-26T03:17:38;100132.22;;;13.45;65.60
53960;BME280;39866;48.638;-2.020;2023-03-26T03:20:05;100136.94;;;13.57;65.36
53960;BME280;39866;48.638;-2.020;2023-03-26T03:22:33;100125.25;;;13.60;65.40
53960;BME280;39866;48.638;-2.020;2023-03-26T03:24:58;100129.78;;;13.58;65.15
53960;BME280;39866;48.638;-2.020;2023-03-26T03:27:24;100128.41;;;13.68;65.32
53960;BME280;39866;48.638;-2.020;2023-03-26T03:29:50;100123.00;;;13.51;65.35
53960;BME280;39866;48.638;-2.020;2023-03-26T03:32:18;100121.28;;;13.50;65.47
53960;BME280;39866;48.638;-2.020;2023-03-26T03:34:43;100110.91;;;13.07;66.00
53960;BME280;39866;48.638;-2.020;2023-03-26T03:37:08;100123.81;;;13.53;65.69
53960;BME280;39866;48.638;-2.020;2023-03-26T03:39:34;100131.22;;;13.48;65.66
53960;BME280;39866;48.638;-2.020;2023-03-26T03:41:59;100132.91;;;13.12;65.73
53960;BME280;39866;48.638;-2.020;2023-03-26T03:44:24;100119.59;;;13.30;65.14
53960;BME280;39866;48.638;-2.020;2023-03-26T03:46:50;100124.34;;;13.42;65.03
53960;BME280;39866;48.638;-2.020;2023-03-26T03:49:18;100122.56;;;13.60;64.85
53960;BME280;39866;48.638;-2.020;2023-03-26T03:51:43;100113.53;;;13.26;65.51
53960;BME280;39866;48.638;-2.020;2023-03-26T03:54:09;100122.63;;;13.41;65.44
53960;BME280;39866;48.638;-2.020;2023-03-26T03:56:34;100123.97;;;13.50;65.27
53960;BME280;39866;48.638;-2.020;2023-03-26T03:59:00;100135.22;;;13.56;65.26
53960;BME280;39866;48.638;-2.020;2023-03-26T04:01:25;100118.59;;;13.32;65.25
53960;BME280;39866;48.638;-2.020;2023-03-26T04:03:51;100129.94;;;13.37;65.01
53960;BME280;39866;48.638;-2.020;2023-03-26T04:06:16;100121.16;;;13.53;64.92
53960;BME280;39866;48.638;-2.020;2023-03-26T04:08:44;100127.06;;;13.59;64.29
53960;BME280;39866;48.638;-2.020;2023-03-26T04:11:10;100131.38;;;13.62;64.45
53960;BME280;39866;48.638;-2.020;2023-03-26T04:13:36;100126.81;;;13.64;64.58
53960;BME280;39866;48.638;-2.020;2023-03-26T04:16:01;100127.06;;;13.77;64.50
53960;BME280;39866;48.638;-2.020;2023-03-26T04:18:27;100124.91;;;13.66;64.36
53960;BME280;39866;48.638;-2.020;2023-03-26T04:20:53;100136.94;;;13.57;64.59
53960;BME280;39866;48.638;-2.020;2023-03-26T04:23:20;100133.94;;;13.46;64.28
53960;BME280;39866;48.638;-2.020;2023-03-26T04:25:52;100128.06;;;13.57;64.65
53960;BME280;39866;48.638;-2.020;2023-03-26T04:28:32;100125.78;;;13.49;64.89
53960;BME280;39866;48.638;-2.020;2023-03-26T04:31:00;100130.66;;;13.41;65.16
53960;BME280;39866;48.638;-2.020;2023-03-26T04:33:29;100140.84;;;13.33;65.92
53960;BME280;39866;48.638;-2.020;2023-03-26T04:35:55;100128.34;;;13.33;66.13
53960;BME280;39866;48.638;-2.020;2023-03-26T04:38:28;100137.25;;;13.15;66.34
53960;BME280;39866;48.638;-2.020;2023-03-26T04:40:53;100130.72;;;13.21;66.47
53960;BME280;39866;48.638;-2.020;2023-03-26T04:43:24;100139.94;;;13.15;66.62
53960;BME280;39866;48.638;-2.020;2023-03-26T04:45:51;100140.38;;;13.25;66.22
53960;BME280;39866;48.638;-2.020;2023-03-26T04:48:17;100135.38;;;13.17;66.50
53960;BME280;39866;48.638;-2.020;2023-03-26T04:50:44;100133.28;;;13.24;66.43
53960;BME280;39866;48.638;-2.020;2023-03-26T04:53:16;100129.38;;;13.12;66.47
53960;BME280;39866;48.638;-2.020;2023-03-26T04:55:44;100135.38;;;13.17;66.18
53960;BME280;39866;48.638;-2.020;2023-03-26T04:58:12;100137.03;;;13.01;66.15
53960;BME280;39866;48.638;-2.020;2023-03-26T05:00:38;100135.91;;;12.87;65.44
53960;BME280;39866;48.638;-2.020;2023-03-26T05:03:03;100132.28;;;12.88;65.69
53960;BME280;39866;48.638;-2.020;2023-03-26T05:05:30;100144.56;;;12.93;65.74
53960;BME280;39866;48.638;-2.020;2023-03-26T05:07:55;100142.75;;;12.93;64.93
53960;BME280;39866;48.638;-2.020;2023-03-26T05:10:21;100141.63;;;12.99;65.10
53960;BME280;39866;48.638;-2.020;2023-03-26T05:12:47;100142.25;;;13.04;64.62
53960;BME280;39866;48.638;-2.020;2023-03-26T05:15:13;100151.56;;;12.76;64.13
53960;BME280;39866;48.638;-2.020;2023-03-26T05:17:40;100160.91;;;12.86;64.53
53960;BME280;39866;48.638;-2.020;2023-03-26T05:20:26;100144.13;;;13.02;63.88
53960;BME280;39866;48.638;-2.020;2023-03-26T05:22:53;100149.03;;;12.92;64.15
53960;BME280;39866;48.638;-2.020;2023-03-26T05:25:19;100144.88;;;12.86;63.53
53960;BME280;39866;48.638;-2.020;2023-03-26T05:27:44;100149.13;;;12.91;63.85
53960;BME280;39866;48.638;-2.020;2023-03-26T05:30:16;100152.22;;;12.81;63.28
53960;BME280;39866;48.638;-2.020;2023-03-26T05:32:42;100157.16;;;12.91;63.86
53960;BME280;39866;48.638;-2.020;2023-03-26T05:35:07;100153.97;;;12.82;63.57
53960;BME280;39866;48.638;-2.020;2023-03-26T05:37:33;100166.88;;;12.92;63.43
53960;BME280;39866;48.638;-2.020;2023-03-26T05:39:59;100160.97;;;13.04;63.16
53960;BME280;39866;48.638;-2.020;2023-03-26T05:42:25;100163.97;;;12.77;62.98
53960;BME280;39866;48.638;-2.020;2023-03-26T05:44:50;100157.69;;;12.97;62.71
53960;BME280;39866;48.638;-2.020;2023-03-26T05:47:16;100164.72;;;13.00;62.27
53960;BME280;39866;48.638;-2.020;2023-03-26T05:49:41;100159.38;;;12.81;62.13
53960;BME280;39866;48.638;-2.020;2023-03-26T05:52:07;100163.63;;;13.04;62.59
53960;BME280;39866;48.638;-2.020;2023-03-26T05:54:32;100166.16;;;13.07;62.38
53960;BME280;39866;48.638;-2.020;2023-03-26T05:56:57;100165.00;;;12.75;62.08
53960;BME280;39866;48.638;-2.020;2023-03-26T05:59:24;100166.88;;;12.92;61.98
53960;BME280;39866;48.638;-2.020;2023-03-26T06:01:49;100165.78;;;12.77;61.70
53960;BME280;39866;48.638;-2.020;2023-03-26T06:04:16;100170.00;;;12.82;61.88
53960;BME280;39866;48.638;-2.020;2023-03-26T06:06:42;100184.50;;;12.96;62.32
53960;BME280;39866;48.638;-2.020;2023-03-26T06:09:09;100186.28;;;12.57;62.45
53960;BME280;39866;48.638;-2.020;2023-03-26T06:11:37;100194.94;;;12.62;61.89
53960;BME280;39866;48.638;-2.020;2023-03-26T06:14:04;100204.41;;;12.30;62.75
53960;BME280;39866;48.638;-2.020;2023-03-26T06:16:29;100204.75;;;12.23;63.44
53960;BME280;39866;48.638;-2.020;2023-03-26T06:18:55;100230.34;;;12.06;65.49
53960;BME280;39866;48.638;-2.020;2023-03-26T06:21:20;100232.28;;;12.03;67.98
53960;BME280;39866;48.638;-2.020;2023-03-26T06:23:46;100211.66;;;11.86;69.93
53960;BME280;39866;48.638;-2.020;2023-03-26T06:26:13;100196.88;;;11.77;70.40
53960;BME280;39866;48.638;-2.020;2023-03-26T06:28:39;100177.97;;;12.04;70.69
53960;BME280;39866;48.638;-2.020;2023-03-26T06:31:04;100189.19;;;12.12;70.56
53960;BME280;39866;48.638;-2.020;2023-03-26T06:33:30;100201.75;;;12.10;70.70
53960;BME280;39866;48.638;-2.020;2023-03-26T06:35:55;100207.56;;;11.77;71.04
53960;BME280;39866;48.638;-2.020;2023-03-26T06:38:21;100198.75;;;12.18;71.11
53960;BME280;39866;48.638;-2.020;2023-03-26T06:40:47;100179.59;;;12.08;71.14
53960;BME280;39866;48.638;-2.020;2023-03-26T06:43:12;100186.47;;;12.13;71.06
53960;BME280;39866;48.638;-2.020;2023-03-26T06:45:38;100196.81;;;12.01;71.33
53960;BME280;39866;48.638;-2.020;2023-03-26T06:48:04;100197.72;;;12.00;70.71
53960;BME280;39866;48.638;-2.020;2023-03-26T06:50:29;100184.78;;;11.90;70.47
53960;BME280;39866;48.638;-2.020;2023-03-26T06:52:56;100178.34;;;11.96;70.71
53960;BME280;39866;48.638;-2.020;2023-03-26T06:55:21;100178.59;;;11.90;70.88
53960;BME280;39866;48.638;-2.020;2023-03-26T06:57:51;100167.91;;;11.90;70.58
53960;BME280;39866;48.638;-2.020;2023-03-26T07:00:17;100172.59;;;11.63;70.35
53960;BME280;39866;48.638;-2.020;2023-03-26T07:02:43;100203.78;;;11.83;70.66
53960;BME280;39866;48.638;-2.020;2023-03-26T07:05:09;100172.41;;;11.89;70.58
53960;BME280;39866;48.638;-2.020;2023-03-26T07:07:34;100167.56;;;11.77;70.23
53960;BME280;39866;48.638;-2.020;2023-03-26T07:09:59;100174.94;;;11.93;70.56
53960;BME280;39866;48.638;-2.020;2023-03-26T07:12:25;100168.91;;;12.08;70.08
53960;BME280;39866;48.638;-2.020;2023-03-26T07:14:51;100164.09;;;12.16;70.09
53960;BME280;39866;48.638;-2.020;2023-03-26T07:17:16;100163.19;;;11.97;69.40
53960;BME280;39866;48.638;-2.020;2023-03-26T07:19:42;100156.06;;;11.75;69.78
53960;BME280;39866;48.638;-2.020;2023-03-26T07:22:20;100150.06;;;11.70;69.58
53960;BME280;39866;48.638;-2.020;2023-03-26T07:24:46;100149.47;;;11.85;69.15
53960;BME280;39866;48.638;-2.020;2023-03-26T07:30:07;100144.53;;;11.75;68.42
53960;BME280;39866;48.638;-2.020;2023-03-26T07:32:52;100141.78;;;11.98;68.74
53960;BME280;39866;48.638;-2.020;2023-03-26T07:35:29;100138.13;;;11.79;67.99
53960;BME280;39866;48.638;-2.020;2023-03-26T07:38:03;100148.91;;;11.98;67.39
53960;BME280;39866;48.638;-2.020;2023-03-26T07:46:02;100133.16;;;11.92;66.94
53960;BME280;39866;48.638;-2.020;2023-03-26T07:48:38;100156.91;;;12.18;66.74
53960;BME280;39866;48.638;-2.020;2023-03-26T07:51:05;100166.53;;;12.02;67.04
53960;BME280;39866;48.638;-2.020;2023-03-26T07:53:31;100159.84;;;12.12;66.57
53960;BME280;39866;48.638;-2.020;2023-03-26T08:01:19;100175.41;;;12.02;65.48
53960;BME280;39866;48.638;-2.020;2023-03-26T08:04:10;100173.88;;;11.75;65.12
53960;BME280;39866;48.638;-2.020;2023-03-26T08:06:43;100178.16;;;12.01;64.40
53960;BME280;39866;48.638;-2.020;2023-03-26T08:11:59;100181.59;;;12.23;65.03
53960;BME280;39866;48.638;-2.020;2023-03-26T08:19:33;100187.13;;;12.39;63.93
53960;BME280;39866;48.638;-2.020;2023-03-26T08:22:15;100174.41;;;12.25;64.35
53960;BME280;39866;48.638;-2.020;2023-03-26T08:27:37;100195.88;;;12.22;63.12
53960;BME280;39866;48.638;-2.020;2023-03-26T08:30:17;100179.94;;;12.00;63.69
53960;BME280;39866;48.638;-2.020;2023-03-26T08:32:57;100192.09;;;12.47;63.71
53960;BME280;39866;48.638;-2.020;2023-03-26T08:35:24;100194.69;;;12.29;63.44
53960;BME280;39866;48.638;-2.020;2023-03-26T08:37:50;100176.31;;;12.61;62.97
53960;BME280;39866;48.638;-2.020;2023-03-26T08:40:53;100198.25;;;12.28;62.98
53960;BME280;39866;48.638;-2.020;2023-03-26T08:43:27;100187.56;;;12.28;63.80
53960;BME280;39866;48.638;-2.020;2023-03-26T08:46:10;100201.09;;;12.05;63.74
53960;BME280;39866;48.638;-2.020;2023-03-26T08:49:05;100195.09;;;12.59;63.39
53960;BME280;39866;48.638;-2.020;2023-03-26T09:19:34;100211.47;;;12.31;61.38
53960;BME280;39866;48.638;-2.020;2023-03-26T09:25:28;100206.06;;;12.53;61.31
53960;BME280;39866;48.638;-2.020;2023-03-26T09:36:28;100224.75;;;12.53;61.92
53960;BME280;39866;48.638;-2.020;2023-03-26T09:39:05;100230.25;;;12.69;61.82
53960;BME280;39866;48.638;-2.020;2023-03-26T09:47:32;100230.19;;;12.71;61.52
53960;BME280;39866;48.638;-2.020;2023-03-26T09:54:39;100237.00;;;13.16;61.51
53960;BME280;39866;48.638;-2.020;2023-03-26T09:57:28;100234.47;;;13.12;61.85
53960;BME280;39866;48.638;-2.020;2023-03-26T10:00:13;100238.88;;;13.13;61.09
53960;BME280;39866;48.638;-2.020;2023-03-26T10:05:47;100248.56;;;13.16;60.61
53960;BME280;39866;48.638;-2.020;2023-03-26T10:14:21;100265.38;;;13.18;60.34
53960;BME280;39866;48.638;-2.020;2023-03-26T10:16:58;100272.84;;;13.30;60.69
53960;BME280;39866;48.638;-2.020;2023-03-26T10:19:50;100277.63;;;13.43;60.72
53960;BME280;39866;48.638;-2.020;2023-03-26T10:22:35;100267.06;;;13.58;60.34
53960;BME280;39866;48.638;-2.020;2023-03-26T10:41:37;100283.19;;;13.76;60.03
53960;BME280;39866;48.638;-2.020;2023-03-26T10:49:52;100300.09;;;14.30;58.77
53960;BME280;39866;48.638;-2.020;2023-03-26T10:52:23;100297.94;;;14.36;58.30
53960;BME280;39866;48.638;-2.020;2023-03-26T10:54:57;100294.72;;;14.47;58.37
53960;BME280;39866;48.638;-2.020;2023-03-26T11:02:43;100287.06;;;14.40;57.69
53960;BME280;39866;48.638;-2.020;2023-03-26T11:05:25;100301.97;;;14.45;58.82
53960;BME280;39866;48.638;-2.020;2023-03-26T11:08:00;100312.91;;;14.41;59.75
53960;BME280;39866;48.638;-2.020;2023-03-26T11:15:56;100320.47;;;14.15;59.31
53960;BME280;39866;48.638;-2.020;2023-03-26T11:18:50;100331.03;;;14.18;59.39
53960;BME280;39866;48.638;-2.020;2023-03-26T11:30:28;100345.91;;;14.24;57.71
53960;BME280;39866;48.638;-2.020;2023-03-26T11:33:01;100345.31;;;14.00;60.02
53960;BME280;39866;48.638;-2.020;2023-03-26T11:35:44;100341.72;;;14.18;59.40
53960;BME280;39866;48.638;-2.020;2023-03-26T11:38:17;100345.91;;;14.24;59.27
53960;BME280;39866;48.638;-2.020;2023-03-26T11:40:44;100353.50;;;14.33;58.65
53960;BME280;39866;48.638;-2.020;2023-03-26T11:43:14;100350.81;;;14.33;59.16
53960;BME280;39866;48.638;-2.020;2023-03-26T11:45:47;100350.91;;;13.76;59.84
53960;BME280;39866;48.638;-2.020;2023-03-26T11:48:26;100358.56;;;14.20;58.59
53960;BME280;39866;48.638;-2.020;2023-03-26T11:51:06;100364.75;;;14.40;57.81
53960;BME280;39866;48.638;-2.020;2023-03-26T11:53:33;100367.09;;;14.28;58.40
53960;BME280;39866;48.638;-2.020;2023-03-26T11:59:00;100384.56;;;14.54;57.25
53960;BME280;39866;48.638;-2.020;2023-03-26T12:10:05;100401.50;;;14.55;58.53
53960;BME280;39866;48.638;-2.020;2023-03-26T12:12:36;100396.44;;;14.12;60.48
53960;BME280;39866;48.638;-2.020;2023-03-26T12:15:04;100419.59;;;14.13;59.93
53960;BME280;39866;48.638;-2.020;2023-03-26T12:17:37;100423.59;;;14.05;61.01
53960;BME280;39866;48.638;-2.020;2023-03-26T12:22:56;100428.13;;;14.03;61.91
53960;BME280;39866;48.638;-2.020;2023-03-26T12:25:34;100431.63;;;14.05;61.89
53960;BME280;39866;48.638;-2.020;2023-03-26T12:30:39;100437.53;;;14.11;63.50
53960;BME280;39866;48.638;-2.020;2023-03-26T12:35:33;100442.97;;;14.10;63.72
53960;BME280;39866;48.638;-2.020;2023-03-26T12:41:13;100446.28;;;14.34;63.40
53960;BME280;39866;48.638;-2.020;2023-03-26T12:43:39;100455.31;;;14.31;63.59
53960;BME280;39866;48.638;-2.020;2023-03-26T12:46:32;100460.13;;;14.25;62.91
53960;BME280;39866;48.638;-2.020;2023-03-26T12:48:59;100456.94;;;14.17;61.98
53960;BME280;39866;48.638;-2.020;2023-03-26T12:51:38;100459.50;;;14.56;61.14
53960;BME280;39866;48.638;-2.020;2023-03-26T12:57:13;100477.72;;;14.48;62.12
53960;BME280;39866;48.638;-2.020;2023-03-26T13:05:53;100479.41;;;14.31;63.71
53960;BME280;39866;48.638;-2.020;2023-03-26T13:18:57;100501.34;;;14.40;64.23
53960;BME280;39866;48.638;-2.020;2023-03-26T13:26:55;100506.81;;;14.74;63.40
53960;BME280;39866;48.638;-2.020;2023-03-26T13:29:25;100518.63;;;14.70;63.62
53960;BME280;39866;48.638;-2.020;2023-03-26T13:32:17;100517.81;;;14.87;63.92
53960;BME280;39866;48.638;-2.020;2023-03-26T13:35:24;100526.47;;;14.56;63.84
53960;BME280;39866;48.638;-2.020;2023-03-26T13:46:01;100546.72;;;14.98;62.77
53960;BME280;39866;48.638;-2.020;2023-03-26T13:51:23;100562.63;;;15.20;63.82
53960;BME280;39866;48.638;-2.020;2023-03-26T13:53:55;100551.09;;;15.18;62.89
53960;BME280;39866;48.638;-2.020;2023-03-26T13:56:29;100553.38;;;14.91;65.55
53960;BME280;39866;48.638;-2.020;2023-03-26T13:59:05;100569.63;;;15.22;64.44
53960;BME280;39866;48.638;-2.020;2023-03-26T14:01:40;100576.91;;;15.38;63.65
53960;BME280;39866;48.638;-2.020;2023-03-26T14:04:22;100588.72;;;15.33;65.34
53960;BME280;39866;48.638;-2.020;2023-03-26T14:07:15;100593.94;;;15.54;66.01
53960;BME280;39866;48.638;-2.020;2023-03-26T14:15:26;100620.03;;;15.69;64.11
53960;BME280;39866;48.638;-2.020;2023-03-26T14:29:27;100617.69;;;15.27;68.30
53960;BME280;39866;48.638;-2.020;2023-03-26T14:40:01;100672.63;;;15.18;66.99
53960;BME280;39866;48.638;-2.020;2023-03-26T14:46:03;100676.56;;;15.11;66.88
53960;BME280;39866;48.638;-2.020;2023-03-26T14:54:22;100690.34;;;14.84;66.63
53960;BME280;39866;48.638;-2.020;2023-03-26T15:02:40;100709.16;;;15.40;65.63
53960;BME280;39866;48.638;-2.020;2023-03-26T15:08:25;100717.16;;;14.84;65.99
53960;BME280;39866;48.638;-2.020;2023-03-26T15:14:25;100734.81;;;15.26;65.32
53960;BME280;39866;48.638;-2.020;2023-03-26T15:17:27;100755.47;;;15.43;65.36
53960;BME280;39866;48.638;-2.020;2023-03-26T15:59:01;100855.16;;;15.15;65.44
53960;BME280;39866;48.638;-2.020;2023-03-26T16:07:00;100890.16;;;15.70;63.40
53960;BME280;39866;48.638;-2.020;2023-03-26T16:10:01;100884.66;;;15.34;63.13
53960;BME280;39866;48.638;-2.020;2023-03-26T16:15:30;100898.53;;;15.63;62.92
53960;BME280;39866;48.638;-2.020;2023-03-26T16:20:45;100913.19;;;15.36;64.02
53960;BME280;39866;48.638;-2.020;2023-03-26T16:28:59;100933.25;;;15.07;64.38
53960;BME280;39866;48.638;-2.020;2023-03-26T16:31:28;100925.63;;;15.19;64.00
53960;BME280;39866;48.638;-2.020;2023-03-26T16:45:09;100960.13;;;14.85;65.96
53960;BME280;39866;48.638;-2.020;2023-03-26T16:50:19;100984.25;;;14.85;65.85
53960;BME280;39866;48.638;-2.020;2023-03-26T16:53:04;100998.81;;;14.58;66.52
53960;BME280;39866;48.638;-2.020;2023-03-26T16:55:42;100988.66;;;14.66;66.70
53960;BME280;39866;48.638;-2.020;2023-03-26T17:01:09;101009.66;;;14.55;66.72
53960;BME280;39866;48.638;-2.020;2023-03-26T17:09:13;101027.38;;;14.12;67.61
53960;BME280;39866;48.638;-2.020;2023-03-26T17:12:02;101029.81;;;13.96;68.32
53960;BME280;39866;48.638;-2.020;2023-03-26T17:22:36;101069.31;;;14.13;68.00
53960;BME280;39866;48.638;-2.020;2023-03-26T17:25:31;101066.28;;;14.22;67.40
53960;BME280;39866;48.638;-2.020;2023-03-26T17:31:04;101075.31;;;13.96;68.17
53960;BME280;39866;48.638;-2.020;2023-03-26T17:38:55;101092.56;;;13.62;67.60
53960;BME280;39866;48.638;-2.020;2023-03-26T17:42:09;101095.75;;;13.74;67.37
53960;BME280;39866;48.638;-2.020;2023-03-26T17:47:21;101118.53;;;13.85;66.92
53960;BME280;39866;48.638;-2.020;2023-03-26T17:49:51;101140.19;;;14.03;66.73
53960;BME280;39866;48.638;-2.020;2023-03-26T17:52:34;101147.28;;;14.04;66.39
53960;BME280;39866;48.638;-2.020;2023-03-26T17:55:07;101156.09;;;13.82;66.96
53960;BME280;39866;48.638;-2.020;2023-03-26T17:57:42;101157.97;;;13.80;67.40
53960;BME280;39866;48.638;-2.020;2023-03-26T18:00:15;101161.59;;;13.78;67.65
53960;BME280;39866;48.638;-2.020;2023-03-26T18:02:46;101162.16;;;13.87;66.94
53960;BME280;39866;48.638;-2.020;2023-03-26T18:05:15;101170.00;;;13.67;67.02
53960;BME280;39866;48.638;-2.020;2023-03-26T18:11:02;101158.66;;;13.85;65.88
53960;BME280;39866;48.638;-2.020;2023-03-26T18:16:42;101190.84;;;14.09;64.14
53960;BME280;39866;48.638;-2.020;2023-03-26T18:19:10;101203.41;;;14.07;64.44
53960;BME280;39866;48.638;-2.020;2023-03-26T18:21:53;101207.78;;;13.84;64.87
53960;BME280;39866;48.638;-2.020;2023-03-26T18:24:32;101207.78;;;13.58;65.48
53960;BME280;39866;48.638;-2.020;2023-03-26T18:27:04;101227.44;;;13.57;66.15
53960;BME280;39866;48.638;-2.020;2023-03-26T18:29:34;101222.34;;;13.76;66.19
53960;BME280;39866;48.638;-2.020;2023-03-26T18:34:32;101230.31;;;13.77;66.34
53960;BME280;39866;48.638;-2.020;2023-03-26T18:39:38;101247.78;;;13.87;66.23
53960;BME280;39866;48.638;-2.020;2023-03-26T18:42:04;101248.56;;;13.91;65.75
53960;BME280;39866;48.638;-2.020;2023-03-26T18:44:31;101251.44;;;13.60;66.47
53960;BME280;39866;48.638;-2.020;2023-03-26T18:46:59;101256.06;;;13.81;66.17